Time;durP1;ratioP1;P1;durP2;ratioP2;P2;SDS_P1;SDS_P2;PMS_P1;PMS_P2;Temp;Humidity;BMP_temperature;BMP_pressure;BME280_temperature;BME280_humidity;BME280_pressure;Samples;Min_cycle;Max_cycle;Signal;HPM_P1;HPM_P2
2021/09/26 00:01:29;;;;;;;6.70;3.88;;;13.60;99.90;;;;;;5036506;28;20261;-93
2021/09/26 00:03:55;;;;;;;7.40;3.78;;;13.50;99.90;;;;;;5036482;28;20210;-93
2021/09/26 00:06:21;;;;;;;5.20;4.15;;;13.50;99.90;;;;;;5035290;28;20668;-94
2021/09/26 00:08:47;;;;;;;7.10;4.22;;;13.50;99.90;;;;;;5035952;28;20194;-94
2021/09/26 00:11:13;;;;;;;4.80;4.30;;;13.50;99.90;;;;;;5036013;28;20174;-93
2021/09/26 00:14:03;;;;;;;4.90;4.35;;;13.50;99.90;;;;;;5035800;28;20198;-93
2021/09/26 00:16:29;;;;;;;4.80;3.90;;;13.50;99.90;;;;;;5035642;28;20167;-93
2021/09/26 00:18:55;;;;;;;4.55;4.10;;;13.50;99.90;;;;;;5035260;28;20195;-93
2021/09/26 00:21:26;;;;;;;5.75;4.70;;;13.50;99.90;;;;;;5035485;28;20204;-93
2021/09/26 00:24:00;;;;;;;7.95;4.40;;;13.50;99.90;;;;;;5035516;28;20689;-93
2021/09/26 00:26:48;;;;;;;5.15;3.90;;;13.50;99.90;;;;;;5035346;28;20209;-95
2021/09/26 00:29:20;;;;;;;5.72;4.50;;;13.50;99.90;;;;;;5035468;28;20229;-93
2021/09/26 00:31:46;;;;;;;4.97;4.47;;;13.50;99.90;;;;;;5036069;28;20181;-93
2021/09/26 00:34:18;;;;;;;5.82;5.18;;;13.60;99.90;;;;;;5035340;28;20179;-94
2021/09/26 00:36:44;;;;;;;6.75;5.32;;;13.60;99.90;;;;;;5035487;28;20179;-94
2021/09/26 00:39:12;;;;;;;7.80;5.35;;;13.60;99.90;;;;;;5035522;28;20209;-95
2021/09/26 00:41:37;;;;;;;8.88;5.75;;;13.70;99.90;;;;;;5035213;28;20173;-94
2021/09/26 00:44:10;;;;;;;7.18;5.47;;;13.70;99.90;;;;;;5035246;28;20344;-93
2021/09/26 00:46:37;;;;;;;7.80;5.43;;;13.80;99.90;;;;;;5035515;28;20174;-94
2021/09/26 00:49:25;;;;;;;9.32;5.10;;;13.80;99.90;;;;;;5035619;28;20191;-93
2021/09/26 00:51:54;;;;;;;6.20;5.00;;;13.80;99.90;;;;;;5034628;28;20170;-93
2021/09/26 00:54:22;;;;;;;5.45;4.50;;;13.80;99.90;;;;;;5034874;28;20204;-93
2021/09/26 00:57:02;;;;;;;8.32;5.22;;;13.80;99.90;;;;;;5035420;28;20639;-94
2021/09/26 00:59:32;;;;;;;5.90;5.18;;;13.80;99.90;;;;;;5034829;28;20208;-94
2021/09/26 01:02:01;;;;;;;4.97;4.50;;;13.80;99.90;;;;;;5034236;28;20175;-94
2021/09/26 01:04:38;;;;;;;8.40;5.45;;;13.80;99.90;;;;;;5034443;28;20182;-93
2021/09/26 01:07:23;;;;;;;7.10;5.43;;;13.70;99.90;;;;;;5034550;28;20263;-93
2021/09/26 01:10:03;;;;;;;9.45;4.78;;;13.70;99.90;;;;;;5034554;28;20200;-94
2021/09/26 01:12:55;;;;;;;5.22;4.72;;;13.70;99.90;;;;;;5035201;28;20282;-93
2021/09/26 01:16:11;;;;;;;6.03;5.40;;;13.80;99.90;;;;;;5035219;28;20626;-96
2021/09/26 01:19:02;;;;;;;8.80;5.60;;;13.70;99.90;;;;;;5034930;28;20256;-94
2021/09/26 01:21:53;;;;;;;8.05;5.20;;;13.60;99.90;;;;;;5035074;28;20170;-93
2021/09/26 01:24:56;;;;;;;7.68;5.88;;;13.60;99.90;;;;;;5034610;28;20193;-94
2021/09/26 01:28:06;;;;;;;7.68;5.22;;;13.60;99.90;;;;;;5034363;28;20267;-93
2021/09/26 01:31:11;;;;;;;10.32;5.93;;;13.60;99.90;;;;;;5027389;28;20178;-93
2021/09/26 01:34:12;;;;;;;5.80;5.20;;;13.50;99.90;;;;;;5035167;28;20182;-93
2021/09/26 01:37:03;;;;;;;6.13;5.47;;;13.50;99.90;;;;;;5038501;28;20197;-94
2021/09/26 01:39:43;;;;;;;7.20;5.70;;;13.50;99.90;;;;;;5038416;28;20195;-93
2021/09/26 01:42:17;;;;;;;7.10;5.07;;;13.50;99.90;;;;;;5038889;28;20170;-93
2021/09/26 01:45:06;;;;;;;7.13;5.68;;;13.50;99.90;;;;;;5038873;28;20166;-93
2021/09/26 01:47:48;;;;;;;5.75;5.15;;;13.50;99.90;;;;;;5038464;28;20198;-94
2021/09/26 01:50:20;;;;;;;7.97;5.75;;;13.50;99.90;;;;;;5038255;28;20266;-93
2021/09/26 01:53:04;;;;;;;6.05;5.00;;;13.50;99.90;;;;;;5038419;28;20236;-93
2021/09/26 01:55:44;;;;;;;7.22;5.88;;;13.50;99.90;;;;;;5038564;28;20193;-95
2021/09/26 01:58:20;;;;;;;5.50;4.80;;;13.50;99.90;;;;;;5038372;28;20229;-93
2021/09/26 02:00:46;;;;;;;8.52;5.28;;;13.50;99.90;;;;;;5037924;28;20284;-94
2021/09/26 02:03:18;;;;;;;7.35;5.70;;;13.50;99.90;;;;;;5038095;28;20182;-94
2021/09/26 02:05:49;;;;;;;6.28;4.80;;;13.50;99.90;;;;;;5038366;28;20202;-95
2021/09/26 02:08:16;;;;;;;7.20;4.85;;;13.60;99.90;;;;;;5038605;28;20210;-94
2021/09/26 02:10:44;;;;;;;6.78;5.68;;;13.60;99.90;;;;;;5038553;28;20186;-94
2021/09/26 02:13:27;;;;;;;6.85;5.75;;;13.60;99.90;;;;;;5038042;28;20174;-93
2021/09/26 02:16:18;;;;;;;7.53;5.32;;;13.60;99.90;;;;;;5037595;28;20177;-94
2021/09/26 02:18:55;;;;;;;8.77;6.00;;;13.60;99.90;;;;;;5037650;28;20199;-94
2021/09/26 02:21:22;;;;;;;10.50;6.03;;;13.60;99.90;;;;;;5037880;28;20217;-94
2021/09/26 02:24:21;;;;;;;8.13;5.38;;;13.50;99.90;;;;;;5035229;28;20309;-94
2021/09/26 02:27:01;;;;;;;7.35;5.43;;;13.50;99.90;;;;;;5037410;28;20214;-94
2021/09/26 02:29:35;;;;;;;5.93;5.32;;;13.50;99.90;;;;;;5037796;28;20666;-94
2021/09/26 02:32:03;;;;;;;7.90;5.45;;;13.40;99.90;;;;;;5037760;28;20174;-94
2021/09/26 02:34:44;;;;;;;6.10;5.03;;;13.40;99.90;;;;;;5037914;28;20210;-94
2021/09/26 02:37:21;;;;;;;8.50;5.50;;;13.40;99.90;;;;;;5037919;28;20646;-93
2021/09/26 02:39:48;;;;;;;6.85;5.68;;;13.40;99.90;;;;;;5037316;28;20230;-93
2021/09/26 02:43:03;;;;;;;5.35;4.85;;;13.30;99.90;;;;;;5038094;28;20194;-94
2021/09/26 02:45:33;;;;;;;6.32;5.20;;;13.30;99.90;;;;;;5036392;28;20201;-93
2021/09/26 02:48:33;;;;;;;10.30;5.43;;;13.20;99.90;;;;;;5038493;28;20228;-94
2021/09/26 02:51:00;;;;;;;5.85;4.90;;;13.20;99.90;;;;;;5037540;28;20700;-95
2021/09/26 02:53:27;;;;;;;5.78;4.90;;;13.10;99.90;;;;;;5038300;28;20702;-94
2021/09/26 02:55:57;;;;;;;6.97;4.93;;;13.10;99.90;;;;;;5037913;28;20217;-94
2021/09/26 02:58:25;;;;;;;7.97;5.30;;;13.10;99.90;;;;;;5037519;28;20202;-93
2021/09/26 03:00:52;;;;;;;8.27;5.57;;;13.10;99.90;;;;;;5037859;28;20185;-93
2021/09/26 03:03:21;;;;;;;8.98;5.32;;;13.10;99.90;;;;;;5038306;28;20186;-93
2021/09/26 03:05:48;;;;;;;6.50;5.22;;;13.10;99.90;;;;;;5038058;28;20175;-93
2021/09/26 03:08:15;;;;;;;7.00;5.10;;;13.10;99.90;;;;;;5036709;28;20213;-94
2021/09/26 03:10:42;;;;;;;5.78;4.93;;;13.10;99.90;;;;;;5037546;28;20171;-94
2021/09/26 03:13:28;;;;;;;5.40;4.90;;;13.10;99.90;;;;;;5037504;28;20258;-94
2021/09/26 03:16:02;;;;;;;6.00;4.85;;;13.10;99.90;;;;;;5037668;28;20197;-94
2021/09/26 03:18:30;;;;;;;7.35;5.95;;;13.10;99.90;;;;;;5037813;28;20205;-93
2021/09/26 03:20:56;;;;;;;7.43;5.90;;;13.00;99.90;;;;;;5037943;28;20187;-93
2021/09/26 03:23:22;;;;;;;7.60;6.32;;;13.00;99.90;;;;;;5036348;28;20720;-93
2021/09/26 03:25:48;;;;;;;6.47;5.88;;;12.90;99.90;;;;;;5037175;28;20178;-92
2021/09/26 03:28:23;;;;;;;6.60;5.90;;;12.90;99.90;;;;;;5037157;28;20278;-95
2021/09/26 03:30:51;;;;;;;10.07;6.18;;;13.00;99.90;;;;;;5037346;28;20177;-93
2021/09/26 03:33:21;;;;;;;8.15;6.03;;;12.90;99.90;;;;;;5037203;28;20186;-94
2021/09/26 03:36:07;;;;;;;6.43;5.43;;;12.90;99.90;;;;;;5037015;28;20175;-94
2021/09/26 03:38:33;;;;;;;5.95;5.35;;;13.00;99.90;;;;;;5036900;28;20202;-94
2021/09/26 03:41:02;;;;;;;6.07;5.07;;;12.90;99.90;;;;;;5037423;28;20185;-94
2021/09/26 03:43:29;;;;;;;8.45;5.55;;;13.00;99.90;;;;;;5037401;28;20198;-93
2021/09/26 03:45:56;;;;;;;6.13;4.68;;;12.90;99.90;;;;;;5037499;28;20183;-95
2021/09/26 03:48:24;;;;;;;8.88;5.38;;;12.90;99.90;;;;;;5036944;28;20218;-94
2021/09/26 03:50:51;;;;;;;5.95;5.07;;;12.90;99.90;;;;;;5036999;28;20175;-93
2021/09/26 03:53:18;;;;;;;5.90;5.28;;;12.80;99.90;;;;;;5037185;28;20329;-94
2021/09/26 03:55:48;;;;;;;5.60;4.90;;;12.70;99.90;;;;;;5037517;28;20285;-93
2021/09/26 03:58:14;;;;;;;6.07;5.45;;;12.80;99.90;;;;;;5037325;28;20203;-95
2021/09/26 04:00:40;;;;;;;5.78;5.18;;;12.80;99.90;;;;;;5037104;28;20254;-95
2021/09/26 04:03:06;;;;;;;6.18;5.07;;;12.80;99.90;;;;;;5037225;28;20190;-94
2021/09/26 04:05:37;;;;;;;8.30;5.53;;;12.80;99.90;;;;;;5036307;28;20179;-92
2021/09/26 04:08:04;;;;;;;6.80;5.35;;;12.80;99.90;;;;;;5036830;28;20218;-93
2021/09/26 04:10:31;;;;;;;7.25;5.38;;;12.80;99.90;;;;;;5036756;28;20175;-92
2021/09/26 04:12:57;;;;;;;7.70;5.95;;;12.80;99.90;;;;;;5036237;28;20270;-93
2021/09/26 04:15:23;;;;;;;6.18;5.40;;;12.80;99.90;;;;;;5037116;28;20201;-94
2021/09/26 04:17:56;;;;;;;7.70;5.50;;;12.80;99.90;;;;;;5036465;28;20198;-93
2021/09/26 04:20:29;;;;;;;8.20;5.82;;;12.90;99.90;;;;;;5036606;28;20250;-94
2021/09/26 04:22:54;;;;;;;9.15;5.30;;;12.90;99.90;;;;;;5035902;28;20222;-93
2021/09/26 04:25:26;;;;;;;6.15;5.38;;;12.80;99.90;;;;;;5036593;28;20186;-95
2021/09/26 04:27:58;;;;;;;10.98;6.15;;;12.90;99.90;;;;;;5036565;28;20210;-94
2021/09/26 04:30:47;;;;;;;6.10;5.50;;;12.80;99.90;;;;;;5036474;28;20642;-94
2021/09/26 04:33:27;;;;;;;7.63;5.68;;;12.80;99.90;;;;;;5036639;28;20221;-95
2021/09/26 04:36:02;;;;;;;8.43;5.72;;;12.80;99.90;;;;;;5036502;28;20173;-93
2021/09/26 04:38:42;;;;;;;10.23;6.22;;;12.80;99.90;;;;;;5036045;28;20281;-93
2021/09/26 04:41:09;;;;;;;8.65;5.60;;;12.80;99.90;;;;;;5036129;28;20222;-93
2021/09/26 04:43:50;;;;;;;6.93;5.47;;;12.80;99.90;;;;;;5036636;28;20175;-93
2021/09/26 04:46:36;;;;;;;6.43;5.50;;;12.80;99.90;;;;;;5036513;28;20174;-93
2021/09/26 04:49:09;;;;;;;7.13;5.65;;;12.80;99.90;;;;;;5036608;28;20202;-95
2021/09/26 04:51:36;;;;;;;7.78;5.40;;;12.70;99.90;;;;;;5037145;28;20228;-93
2021/09/26 04:54:03;;;;;;;9.43;5.95;;;12.70;99.90;;;;;;5036594;28;20183;-93
2021/09/26 04:56:45;;;;;;;7.00;6.15;;;12.60;99.90;;;;;;5036820;28;20194;-93
2021/09/26 04:59:19;;;;;;;9.20;5.70;;;12.60;99.90;;;;;;5036612;28;20198;-93
2021/09/26 05:01:47;;;;;;;7.70;6.05;;;12.60;99.90;;;;;;5036846;28;20166;-92
2021/09/26 05:04:30;;;;;;;8.30;5.93;;;12.60;99.90;;;;;;5036462;28;20213;-95
2021/09/26 05:06:58;;;;;;;6.72;5.50;;;12.60;99.90;;;;;;5036137;28;20209;-94
2021/09/26 05:09:28;;;;;;;8.00;5.35;;;12.60;99.90;;;;;;5037909;28;20198;-93
2021/09/26 05:12:05;;;;;;;5.20;4.70;;;12.60;99.90;;;;;;5040354;28;20163;-93
2021/09/26 05:14:40;;;;;;;7.57;4.90;;;12.60;99.90;;;;;;5039560;28;20166;-93
2021/09/26 05:17:06;;;;;;;6.22;5.30;;;12.50;99.90;;;;;;5039639;28;20316;-94
2021/09/26 05:19:33;;;;;;;7.43;6.53;;;12.50;99.90;;;;;;5039667;28;20614;-93
2021/09/26 05:21:59;;;;;;;7.03;5.85;;;12.40;99.90;;;;;;5039380;28;20262;-92
2021/09/26 05:24:30;;;;;;;6.18;5.40;;;12.50;99.90;;;;;;5039451;28;20292;-93
2021/09/26 05:26:56;;;;;;;6.22;5.63;;;12.50;99.90;;;;;;5039606;28;20211;-94
2021/09/26 05:29:26;;;;;;;8.73;6.32;;;12.50;99.90;;;;;;5039685;28;20300;-94
2021/09/26 05:31:55;;;;;;;7.30;5.60;;;12.50;99.90;;;;;;5039531;28;20171;-93
2021/09/26 05:34:35;;;;;;;7.00;5.60;;;12.60;99.90;;;;;;5038872;28;20178;-94
2021/09/26 05:37:07;;;;;;;7.80;6.07;;;12.60;99.90;;;;;;5038931;28;20174;-94
2021/09/26 05:39:33;;;;;;;7.28;6.45;;;12.60;99.90;;;;;;5038515;28;20198;-93
2021/09/26 05:42:16;;;;;;;7.85;6.97;;;12.70;99.90;;;;;;5037926;28;20261;-91
2021/09/26 05:44:55;;;;;;;9.95;6.70;;;12.80;99.90;;;;;;5037725;28;20178;-94
2021/09/26 05:47:29;;;;;;;9.10;7.47;;;12.80;99.90;;;;;;5037643;28;20198;-93
2021/09/26 05:50:05;;;;;;;10.20;6.35;;;12.90;99.90;;;;;;5037839;28;20167;-92
2021/09/26 05:52:37;;;;;;;7.05;6.32;;;13.00;99.90;;;;;;5037804;28;20237;-93
2021/09/26 05:55:18;;;;;;;8.70;6.93;;;13.00;99.90;;;;;;5037817;28;20166;-93
2021/09/26 05:57:50;;;;;;;8.80;7.85;;;13.00;99.90;;;;;;5037806;28;20190;-94
2021/09/26 06:00:44;;;;;;;10.43;8.50;;;13.10;99.90;;;;;;5037798;28;20171;-92
2021/09/26 06:03:26;;;;;;;9.25;8.02;;;13.10;99.90;;;;;;5036765;28;20170;-93
2021/09/26 06:05:52;;;;;;;9.15;8.15;;;13.20;99.90;;;;;;5036582;28;20648;-94
2021/09/26 06:08:47;;;;;;;14.75;9.10;;;13.20;99.90;;;;;;5036284;28;20308;-94
2021/09/26 06:11:26;;;;;;;13.02;9.00;;;13.30;99.90;;;;;;5037016;28;20293;-93
2021/09/26 06:14:02;;;;;;;12.27;8.77;;;13.30;99.90;;;;;;5037336;28;20582;-93
2021/09/26 06:16:38;;;;;;;12.80;10.50;;;13.40;99.90;;;;;;5036523;28;20178;-94
2021/09/26 06:19:06;;;;;;;16.00;11.88;;;13.50;99.90;;;;;;5036512;28;20194;-93
2021/09/26 06:21:32;;;;;;;15.50;11.35;;;13.50;99.90;;;;;;5036136;28;20178;-94
2021/09/26 06:24:00;;;;;;;15.32;11.35;;;13.60;99.90;;;;;;5035915;28;20222;-95
2021/09/26 06:26:28;;;;;;;14.20;11.82;;;13.70;99.90;;;;;;5036714;28;20182;-93
2021/09/26 06:29:13;;;;;;;14.63;11.07;;;13.80;99.90;;;;;;5036435;28;20345;-93
2021/09/26 06:31:40;;;;;;;14.05;12.20;;;13.90;99.90;;;;;;5036973;28;20312;-94
2021/09/26 06:34:11;;;;;;;17.95;12.02;;;13.90;99.90;;;;;;5037432;28;20179;-94
2021/09/26 06:36:37;;;;;;;12.40;10.80;;;14.00;99.90;;;;;;5037522;28;20178;-95
2021/09/26 06:39:05;;;;;;;13.27;10.95;;;14.00;99.90;;;;;;5036581;28;20194;-93
2021/09/26 06:41:31;;;;;;;16.60;11.93;;;14.10;99.90;;;;;;5037814;28;20171;-92
2021/09/26 06:44:03;;;;;;;14.20;11.73;;;14.20;99.90;;;;;;5037970;28;20174;-94
2021/09/26 06:46:32;;;;;;;15.65;12.02;;;14.30;99.90;;;;;;5037581;28;20179;-92
2021/09/26 06:49:07;;;;;;;14.38;12.00;;;14.30;99.90;;;;;;5037053;28;20215;-95
2021/09/26 06:51:46;;;;;;;17.27;12.48;;;14.30;99.90;;;;;;5036968;28;20184;-95
2021/09/26 06:54:28;;;;;;;13.65;11.30;;;14.40;99.90;;;;;;5036916;28;20178;-93
2021/09/26 06:57:01;;;;;;;17.17;12.88;;;14.50;99.90;;;;;;5037212;28;20630;-95
2021/09/26 06:59:34;;;;;;;14.40;11.13;;;14.50;99.90;;;;;;5036811;28;20564;-93
2021/09/26 07:02:04;;;;;;;13.80;12.05;;;14.50;99.90;;;;;;5036060;28;20179;-93
2021/09/26 07:04:31;;;;;;;17.20;12.60;;;14.60;99.90;;;;;;5036180;28;20229;-94
2021/09/26 07:07:06;;;;;;;16.58;12.48;;;14.70;99.90;;;;;;5036100;28;20230;-95
2021/09/26 07:09:34;;;;;;;18.83;13.48;;;14.80;99.90;;;;;;5035959;28;20236;-95
2021/09/26 07:12:05;;;;;;;15.00;13.15;;;15.00;99.90;;;;;;5036652;28;20209;-94
2021/09/26 07:15:02;;;;;;;17.63;13.93;;;15.00;99.90;;;;;;5036698;28;20222;-94
2021/09/26 07:17:31;;;;;;;15.18;13.05;;;15.10;99.90;;;;;;5036736;28;20182;-94
2021/09/26 07:20:09;;;;;;;19.38;13.82;;;15.10;99.90;;;;;;5036652;28;20186;-94
2021/09/26 07:22:40;;;;;;;15.68;12.00;;;15.20;99.90;;;;;;5036332;28;20335;-93
2021/09/26 07:25:23;;;;;;;17.33;13.68;;;15.20;99.90;;;;;;5036714;28;20178;-94
2021/09/26 07:28:26;;;;;;;13.05;11.38;;;15.20;99.90;;;;;;5035969;28;20694;-95
2021/09/26 07:30:53;;;;;;;15.27;11.30;;;15.20;99.90;;;;;;5036200;28;20635;-94
2021/09/26 07:33:23;;;;;;;14.60;12.43;;;15.20;99.90;;;;;;5036531;28;20173;-93
2021/09/26 07:35:52;;;;;;;15.98;12.45;;;15.20;99.90;;;;;;5036587;28;20175;-94
2021/09/26 07:38:25;;;;;;;17.02;13.25;;;15.30;99.90;;;;;;5036162;28;20205;-95
2021/09/26 07:40:51;;;;;;;14.60;11.45;;;15.40;99.90;;;;;;5036413;28;20178;-93
2021/09/26 07:43:18;;;;;;;15.90;12.55;;;15.50;99.90;;;;;;5036230;28;20182;-94
2021/09/26 07:45:50;;;;;;;17.27;13.43;;;15.50;99.90;;;;;;5035830;28;20175;-94
2021/09/26 07:48:16;;;;;;;16.65;12.75;;;15.60;99.90;;;;;;5037214;28;20219;-95
2021/09/26 07:50:50;;;;;;;13.73;11.32;;;15.70;99.90;;;;;;5036278;28;20189;-94
2021/09/26 07:53:19;;;;;;;15.48;12.38;;;15.80;99.90;;;;;;5035890;28;20167;-93
2021/09/26 07:55:52;;;;;;;16.70;11.52;;;15.90;99.90;;;;;;5035445;28;20194;-93
2021/09/26 07:58:32;;;;;;;12.57;10.30;;;16.00;99.90;;;;;;5035830;28;20202;-93
2021/09/26 08:01:06;;;;;;;11.38;10.18;;;16.10;99.90;;;;;;5035970;28;20198;-93
2021/09/26 08:03:40;;;;;;;12.07;10.68;;;16.10;99.90;;;;;;5035966;28;20620;-94
2021/09/26 08:06:06;;;;;;;13.05;10.27;;;16.20;99.90;;;;;;5036800;28;20180;-94
2021/09/26 08:08:39;;;;;;;11.90;9.65;;;16.20;99.90;;;;;;5035978;28;20210;-94
2021/09/26 08:11:10;;;;;;;13.15;9.75;;;16.30;99.90;;;;;;5036740;28;20634;-94
2021/09/26 08:13:37;;;;;;;11.60;9.00;;;16.30;99.90;;;;;;5036802;28;20182;-94
2021/09/26 08:16:15;;;;;;;10.60;8.68;;;16.40;99.90;;;;;;5036131;28;20198;-93
2021/09/26 08:18:41;;;;;;;11.65;9.45;;;16.50;99.90;;;;;;5035624;28;20199;-94
2021/09/26 08:21:13;;;;;;;9.60;8.10;;;16.60;99.90;;;;;;5035702;28;20189;-94
2021/09/26 08:23:40;;;;;;;10.57;8.25;;;16.70;99.90;;;;;;5036280;28;20222;-94
2021/09/26 08:26:06;;;;;;;9.30;8.07;;;16.90;99.90;;;;;;5036462;28;20213;-94
2021/09/26 08:28:32;;;;;;;9.02;7.93;;;16.90;99.90;;;;;;5035868;28;20610;-96
2021/09/26 08:31:02;;;;;;;9.15;6.97;;;17.10;99.90;;;;;;5036443;28;20178;-94
2021/09/26 08:33:28;;;;;;;7.85;6.93;;;17.10;99.90;;;;;;5036390;28;20178;-94
2021/09/26 08:36:02;;;;;;;7.65;6.45;;;17.20;99.90;;;;;;5036735;28;20272;-95
2021/09/26 08:38:28;;;;;;;6.50;5.82;;;17.20;99.90;;;;;;5035055;28;20201;-94
2021/09/26 08:40:55;;;;;;;7.85;6.05;;;17.30;99.90;;;;;;5035890;28;20179;-95
2021/09/26 08:43:20;;;;;;;8.15;6.65;;;17.40;99.90;;;;;;5036344;28;20185;-94
2021/09/26 08:45:47;;;;;;;7.00;6.30;;;17.40;99.90;;;;;;5036868;28;20183;-94
2021/09/26 08:48:14;;;;;;;6.35;5.75;;;17.50;99.90;;;;;;5035921;28;20217;-95
2021/09/26 08:50:42;;;;;;;7.20;6.07;;;17.60;99.90;;;;;;5035897;28;20205;-93
2021/09/26 08:53:11;;;;;;;6.32;5.68;;;17.70;99.90;;;;;;5035583;28;20262;-94
2021/09/26 08:55:43;;;;;;;9.57;6.10;;;17.80;99.90;;;;;;5034035;28;20266;-94
2021/09/26 08:58:10;;;;;;;7.80;5.75;;;17.90;99.90;;;;;;5033594;28;20258;-95
2021/09/26 09:00:36;;;;;;;7.22;5.85;;;18.00;99.90;;;;;;5033935;28;20232;-94
2021/09/26 09:03:27;;;;;;;6.80;5.50;;;18.10;99.90;;;;;;5034596;28;20178;-95
2021/09/26 09:06:02;;;;;;;6.45;5.10;;;18.30;99.90;;;;;;5034469;28;20182;-95
2021/09/26 09:08:27;;;;;;;6.18;5.35;;;18.30;99.90;;;;;;5033934;28;20268;-94
2021/09/26 09:11:20;;;;;;;7.13;5.22;;;18.40;99.90;;;;;;5033533;28;20171;-94
2021/09/26 09:13:58;;;;;;;6.40;5.25;;;18.40;99.90;;;;;;5033899;28;20256;-93
2021/09/26 09:16:38;;;;;;;6.03;5.18;;;18.50;99.90;;;;;;5034141;28;20179;-95
2021/09/26 09:19:19;;;;;;;8.05;4.95;;;18.50;99.90;;;;;;5033724;28;20293;-95
2021/09/26 09:21:45;;;;;;;9.77;5.43;;;18.60;99.90;;;;;;5034091;28;20178;-94
2021/09/26 09:24:25;;;;;;;9.15;4.82;;;18.60;99.90;;;;;;5033472;28;20228;-94
2021/09/26 09:27:16;;;;;;;6.85;4.95;;;18.60;99.90;;;;;;5034057;28;20224;-94
2021/09/26 09:29:42;;;;;;;4.70;4.30;;;18.60;99.90;;;;;;5033511;28;20207;-94
2021/09/26 09:32:23;;;;;;;8.43;5.22;;;18.50;99.90;;;;;;5033952;28;20179;-94
2021/09/26 09:34:52;;;;;;;6.85;5.13;;;18.60;99.90;;;;;;5034068;28;20559;-95
2021/09/26 09:37:25;;;;;;;6.47;5.30;;;18.70;99.90;;;;;;5034078;28;20654;-94
2021/09/26 09:40:11;;;;;;;5.32;4.82;;;18.70;99.90;;;;;;5033729;28;20206;-94
2021/09/26 09:42:55;;;;;;;5.85;5.25;;;18.80;99.90;;;;;;5033556;28;20183;-95
2021/09/26 09:45:34;;;;;;;6.70;5.28;;;18.90;99.90;;;;;;5033523;28;20202;-94
2021/09/26 09:48:12;;;;;;;7.00;4.93;;;19.00;99.90;;;;;;5032821;28;20221;-95
2021/09/26 09:50:46;;;;;;;5.90;5.20;;;19.10;99.90;;;;;;5033150;28;20178;-94
2021/09/26 09:53:40;;;;;;;9.13;5.57;;;19.10;99.90;;;;;;5033139;28;20171;-94
2021/09/26 09:56:21;;;;;;;5.70;5.00;;;19.30;99.90;;;;;;5034376;28;20283;-94
2021/09/26 09:58:54;;;;;;;5.15;4.60;;;19.30;99.90;;;;;;5037002;28;20203;-94
2021/09/26 10:01:39;;;;;;;6.75;4.95;;;19.30;99.90;;;;;;5037659;28;20248;-94
2021/09/26 10:07:32;;;;;;;7.10;5.25;;;19.20;99.90;;;;;;5038697;28;20233;-95
2021/09/26 10:09:59;;;;;;;5.38;4.50;;;19.20;99.90;;;;;;5038202;28;20624;-95
2021/09/26 10:12:33;;;;;;;6.10;5.05;;;19.30;99.90;;;;;;5036642;28;20171;-95
2021/09/26 10:15:14;;;;;;;5.88;5.10;;;19.40;99.90;;;;;;5037392;28;20170;-94
2021/09/26 10:17:39;;;;;;;5.35;4.85;;;19.70;99.90;;;;;;5036656;28;20185;-95
2021/09/26 10:20:07;;;;;;;6.45;4.97;;;19.90;99.90;;;;;;5036635;28;20261;-94
2021/09/26 10:22:38;;;;;;;5.90;4.57;;;20.10;99.90;;;;;;5037392;28;20241;-94
2021/09/26 10:25:05;;;;;;;5.93;4.82;;;20.20;99.90;;;;;;5037001;28;20209;-96
2021/09/26 10:27:38;;;;;;;7.80;4.78;;;20.30;99.90;;;;;;5037442;28;20296;-95
2021/09/26 10:30:23;;;;;;;5.78;4.15;;;20.40;99.90;;;;;;5036993;28;20185;-95
2021/09/26 10:32:59;;;;;;;9.45;4.80;;;20.40;99.90;;;;;;5037577;28;20624;-94
2021/09/26 10:35:35;;;;;;;5.95;5.22;;;20.50;99.90;;;;;;5039796;28;20182;-94
2021/09/26 10:38:10;;;;;;;5.22;4.72;;;20.50;99.90;;;;;;5037277;28;20289;-95
2021/09/26 10:40:41;;;;;;;11.25;4.78;;;20.50;99.90;;;;;;5037933;28;20193;-94
2021/09/26 10:43:28;;;;;;;6.68;4.75;;;20.60;99.90;;;;;;5037888;28;20170;-95
2021/09/26 10:46:27;;;;;;;6.07;4.65;;;20.60;99.90;;;;;;5037107;28;20175;-94
2021/09/26 10:49:09;;;;;;;9.13;5.05;;;20.70;99.90;;;;;;5036670;28;20214;-94
2021/09/26 10:51:55;;;;;;;7.85;5.05;;;20.70;99.90;;;;;;5037031;28;20178;-95
2021/09/26 10:54:26;;;;;;;5.88;4.85;;;20.80;99.90;;;;;;5037318;28;20653;-94
2021/09/26 10:57:21;;;;;;;6.78;4.53;;;20.90;99.90;;;;;;5037424;28;20178;-95
2021/09/26 10:59:48;;;;;;;5.78;5.07;;;21.00;99.90;;;;;;5036545;28;20214;-95
2021/09/26 11:02:35;;;;;;;6.32;4.38;;;21.10;99.90;;;;;;5036773;28;20171;-95
2021/09/26 11:05:06;;;;;;;5.88;4.28;;;21.10;99.90;;;;;;5035923;28;20177;-95
2021/09/26 11:07:46;;;;;;;6.32;4.90;;;21.20;99.90;;;;;;5035628;28;20202;-94
2021/09/26 11:10:38;;;;;;;6.63;4.28;;;21.30;99.90;;;;;;5036388;28;20171;-95
2021/09/26 11:13:38;;;;;;;4.88;4.38;;;21.40;99.90;;;;;;5036525;28;20178;-94
2021/09/26 11:16:51;;;;;;;5.07;4.57;;;21.40;99.90;;;;;;5036421;28;20270;-94
2021/09/26 11:19:27;;;;;;;4.18;3.78;;;21.50;99.90;;;;;;5035986;28;20566;-95
2021/09/26 11:21:56;;;;;;;4.35;3.95;;;21.60;99.90;;;;;;5036094;28;20197;-95
2021/09/26 11:24:44;;;;;;;5.07;4.45;;;21.70;99.90;;;;;;5035073;28;20223;-94
2021/09/26 11:27:22;;;;;;;5.13;4.03;;;21.70;99.90;;;;;;5035168;28;20202;-95
2021/09/26 11:29:50;;;;;;;6.13;4.07;;;21.90;99.90;;;;;;5035489;28;20195;-95
2021/09/26 11:32:33;;;;;;;5.82;4.30;;;21.90;99.90;;;;;;5035211;28;20186;-95
2021/09/26 11:35:06;;;;;;;5.32;4.30;;;22.00;99.90;;;;;;5035459;28;20205;-95
2021/09/26 11:37:41;;;;;;;7.28;3.72;;;22.10;99.90;;;;;;5035989;28;20175;-95
2021/09/26 11:40:19;;;;;;;6.00;3.88;;;22.30;99.90;;;;;;5035557;28;20201;-95
2021/09/26 11:42:53;;;;;;;4.93;3.72;;;22.30;99.90;;;;;;5035100;28;20181;-94
2021/09/26 11:45:32;;;;;;;8.05;3.95;;;22.30;99.90;;;;;;5034904;28;20186;-94
2021/09/26 11:48:46;;;;;;;5.18;3.70;;;22.30;99.90;;;;;;5034874;28;20210;-95
2021/09/26 11:51:22;;;;;;;6.03;3.50;;;22.40;99.90;;;;;;5028444;28;20179;-94
2021/09/26 11:53:55;;;;;;;6.35;3.88;;;22.50;99.90;;;;;;5034799;28;20170;-95
2021/09/26 11:56:42;;;;;;;5.68;4.03;;;22.60;99.90;;;;;;5036112;28;20175;-95
2021/09/26 11:59:16;;;;;;;5.18;3.75;;;22.70;99.90;;;;;;5034775;28;20210;-96
2021/09/26 12:01:45;;;;;;;7.20;3.90;;;22.80;99.90;;;;;;5034995;28;20179;-94
2021/09/26 12:04:19;;;;;;;3.92;3.60;;;22.80;99.90;;;;;;5034340;28;20233;-95
2021/09/26 12:07:04;;;;;;;7.35;3.92;;;22.90;99.90;;;;;;5034353;28;20252;-94
2021/09/26 12:09:42;;;;;;;8.45;3.78;;;22.90;99.90;;;;;;5034361;28;20202;-94
2021/09/26 12:12:14;;;;;;;5.20;4.13;;;22.90;99.90;;;;;;5034879;28;20170;-95
2021/09/26 12:14:46;;;;;;;4.90;3.67;;;22.90;99.90;;;;;;5034124;28;20170;-94
2021/09/26 12:17:22;;;;;;;5.45;3.88;;;23.00;99.90;;;;;;5033974;28;20602;-94
2021/09/26 12:20:06;;;;;;;9.15;3.70;;;23.00;99.90;;;;;;5033799;28;20269;-94
2021/09/26 12:22:35;;;;;;;7.63;4.05;;;23.00;99.90;;;;;;5033992;28;20177;-94
2021/09/26 12:25:24;;;;;;;8.95;4.03;;;23.10;99.90;;;;;;5033977;28;20275;-94
2021/09/26 12:27:52;;;;;;;4.13;3.72;;;23.20;99.90;;;;;;5033808;28;20563;-94
2021/09/26 12:30:22;;;;;;;4.75;3.40;;;23.20;99.90;;;;;;5034109;28;20186;-94
2021/09/26 12:33:19;;;;;;;6.38;3.90;;;23.30;99.90;;;;;;5034295;28;20262;-95
2021/09/26 12:36:10;;;;;;;7.38;3.65;;;23.30;99.90;;;;;;5034008;28;20176;-94
2021/09/26 12:38:56;;;;;;;5.38;3.72;;;23.30;99.90;;;;;;5033963;28;20202;-95
2021/09/26 12:41:33;;;;;;;6.18;4.07;;;23.40;99.90;;;;;;5033836;28;20207;-95
2021/09/26 12:44:23;;;;;;;4.82;3.60;;;23.40;99.90;;;;;;5033700;28;20653;-95
2021/09/26 12:46:52;;;;;;;4.90;3.72;;;23.40;99.90;;;;;;5033746;28;20635;-95
2021/09/26 12:49:19;;;;;;;5.00;3.92;;;23.40;99.90;;;;;;5033769;28;20194;-95
2021/09/26 12:51:58;;;;;;;5.30;3.42;;;23.40;99.90;;;;;;5033724;28;20166;-95
2021/09/26 12:54:28;;;;;;;3.95;3.53;;;23.50;99.90;;;;;;5033801;28;20538;-91
2021/09/26 12:56:55;;;;;;;9.25;3.95;;;23.50;99.90;;;;;;5033906;28;20193;-92
2021/09/26 12:59:36;;;;;;;4.18;3.45;;;23.50;99.90;;;;;;5033556;28;20190;-91
2021/09/26 13:02:10;;;;;;;5.20;3.72;;;23.60;99.90;;;;;;5034200;28;20269;-92
2021/09/26 13:04:42;;;;;;;7.03;3.85;;;23.60;99.90;;;;;;5033558;28;20602;-92
2021/09/26 13:10:24;;;;;;;4.43;4.00;;;23.60;99.90;;;;;;5034947;28;20246;-92
2021/09/26 13:16:17;;;;;;;5.57;4.15;;;23.30;99.90;;;;;;5034561;28;20161;-92
2021/09/26 13:18:45;;;;;;;6.40;4.15;;;23.10;99.90;;;;;;5033363;28;20203;-92
2021/09/26 13:21:32;;;;;;;6.80;3.88;;;23.00;99.90;;;;;;5033364;28;20202;-92
2021/09/26 13:24:25;;;;;;;10.40;4.63;;;23.00;99.90;;;;;;5033018;28;20234;-93
2021/09/26 13:26:51;;;;;;;6.32;4.38;;;22.90;99.90;;;;;;5032984;28;20681;-92
2021/09/26 13:29:30;;;;;;;5.20;4.05;;;22.80;99.90;;;;;;5033484;28;20198;-92
2021/09/26 13:32:38;;;;;;;7.90;4.00;;;22.80;99.90;;;;;;5037310;28;20173;-93
2021/09/26 13:35:19;;;;;;;6.03;3.92;;;23.00;99.90;;;;;;5000215;28;20175;-93